createdAt,value
2022-09-09T00:00:53.996Z,16.2
2022-09-09T00:01:54.438Z,16.3
2022-09-09T00:02:52.853Z,16.4
2022-09-09T00:03:53.303Z,16.2
2022-09-09T00:04:52.816Z,16.1
2022-09-09T00:05:52.844Z,16.2
2022-09-09T00:06:54.501Z,16.4
2022-09-09T00:07:52.941Z,16.4
2022-09-09T00:08:55.785Z,16.5
2022-09-09T00:09:55.489Z,16.5
2022-09-09T00:10:53.623Z,16.5
2022-09-09T00:11:54.615Z,16.3
2022-09-09T00:12:53.951Z,16.2
2022-09-09T00:13:53.343Z,16.3
2022-09-09T00:14:53.688Z,16.3
2022-09-09T00:15:55.149Z,16.2
2022-09-09T00:16:53.614Z,16.3
2022-09-09T00:17:54.205Z,16.5
2022-09-09T00:18:56.840Z,16.4
2022-09-09T00:19:53.761Z,16.5
2022-09-09T00:20:53.899Z,16.4
2022-09-09T00:21:53.944Z,16.3
2022-09-09T00:22:53.981Z,16.2
2022-09-09T00:23:54.401Z,16.3
2022-09-09T00:24:56.860Z,16.4
2022-09-09T00:25:54.228Z,16.3
2022-09-09T00:26:54.295Z,16.3
2022-09-09T00:27:54.656Z,16.2
2022-09-09T00:28:55.790Z,16.3
2022-09-09T00:29:55.658Z,16.4
2022-09-09T00:30:54.685Z,16.2
2022-09-09T00:31:54.649Z,16.1
2022-09-09T00:32:54.712Z,16
2022-09-09T00:33:54.751Z,16.1
2022-09-09T00:34:56.537Z,16.1
2022-09-09T00:35:56.930Z,16
2022-09-09T00:36:57.577Z,16
2022-09-09T00:37:55.070Z,16
2022-09-09T00:38:56.818Z,16
2022-09-09T00:39:55.173Z,16.1
2022-09-09T00:40:56.408Z,16.1
2022-09-09T00:41:55.655Z,16
2022-09-09T00:42:56.265Z,16
2022-09-09T00:43:56.189Z,16
2022-09-09T00:44:57.607Z,16
2022-09-09T00:45:57.067Z,15.9
2022-09-09T00:46:56.291Z,15.9
2022-09-09T00:47:57.510Z,15.9
2022-09-09T00:48:55.780Z,16.1
2022-09-09T00:50:01.100Z,16
2022-09-09T00:50:57.797Z,16.1
2022-09-09T00:51:56.340Z,16.2
2022-09-09T00:52:55.988Z,16.2
2022-09-09T00:53:56.068Z,16.2
2022-09-09T00:54:57.514Z,16.2
2022-09-09T00:55:56.170Z,16.3
2022-09-09T00:56:56.843Z,16.2
2022-09-09T00:57:57.694Z,16.1
2022-09-09T00:58:57.695Z,16
2022-09-09T00:59:57.686Z,16
2022-09-09T01:00:56.512Z,16.2
2022-09-09T01:01:58.529Z,16.1
2022-09-09T01:02:59.147Z,16.2
2022-09-09T01:03:58.156Z,16.2
2022-09-09T01:04:57.251Z,16.1
2022-09-09T01:06:04.330Z,16.2
2022-09-09T01:06:59.286Z,16.3
2022-09-09T01:07:58.413Z,16.2
2022-09-09T01:08:56.985Z,16.2
2022-09-09T01:09:57.051Z,16
2022-09-09T01:10:57.094Z,16.1
2022-09-09T01:11:57.133Z,16.1
2022-09-09T01:12:59.238Z,16.2
2022-09-09T01:13:57.466Z,16.2
2022-09-09T01:14:57.300Z,16.2
2022-09-09T01:16:01.694Z,16.1
2022-09-09T01:16:58.138Z,16.1
2022-09-09T01:17:58.547Z,16
2022-09-09T01:18:57.675Z,15.9
2022-09-09T01:19:57.604Z,16
2022-09-09T01:20:57.646Z,16.1
2022-09-09T01:21:57.687Z,16.2
2022-09-09T01:22:57.844Z,16.3
2022-09-09T01:23:57.974Z,16.2
2022-09-09T01:24:58.128Z,16.2
2022-09-09T01:25:57.828Z,16.1
2022-09-09T01:26:58.579Z,16.1
2022-09-09T01:27:57.925Z,16.2
2022-09-09T01:29:00.131Z,16.3
2022-09-09T01:29:58.731Z,16.3
2022-09-09T01:31:00.145Z,16.1
2022-09-09T01:31:58.182Z,16
2022-09-09T01:32:58.192Z,16
2022-09-09T01:33:58.357Z,16
2022-09-09T01:34:58.295Z,15.9
2022-09-09T01:35:58.337Z,15.9
2022-09-09T01:36:58.363Z,16
2022-09-09T01:37:59.771Z,16
2022-09-09T01:39:00.044Z,16
2022-09-09T01:39:58.905Z,15.9
2022-09-09T01:40:58.548Z,15.9
2022-09-09T01:41:58.792Z,16
2022-09-09T01:42:58.730Z,15.9
2022-09-09T01:44:00.483Z,15.9
2022-09-09T01:44:58.822Z,15.9
2022-09-09T01:45:58.916Z,15.9
2022-09-09T01:47:00.637Z,16
2022-09-09T01:48:02.421Z,16.1
2022-09-09T01:48:59.155Z,16
2022-09-09T01:49:59.194Z,16
2022-09-09T01:51:00.961Z,16.1
2022-09-09T01:51:59.298Z,16.2
2022-09-09T01:52:59.369Z,16.1
2022-09-09T01:54:00.018Z,16.2
2022-09-09T01:55:00.443Z,16.3
2022-09-09T01:56:00.489Z,16.4
2022-09-09T01:56:59.673Z,16.2
2022-09-09T01:58:02.457Z,16.1
2022-09-09T01:58:59.789Z,16
2022-09-09T02:00:01.090Z,16.1
2022-09-09T02:01:00.131Z,16.1
2022-09-09T02:02:04.045Z,16.1
2022-09-09T02:03:00.089Z,16.1
2022-09-09T02:04:00.176Z,16
2022-09-09T02:05:00.281Z,16
2022-09-09T02:06:00.451Z,16
2022-09-09T02:07:00.915Z,16
2022-09-09T02:08:00.437Z,15.9
2022-09-09T02:09:00.508Z,15.9
2022-09-09T02:10:01.070Z,15.9
2022-09-09T02:11:02.058Z,16
2022-09-09T02:12:02.613Z,16
2022-09-09T02:13:02.528Z,15.9
2022-09-09T02:14:01.011Z,16
2022-09-09T02:15:02.860Z,15.9
2022-09-09T02:16:01.042Z,15.9
2022-09-09T02:17:01.250Z,16
2022-09-09T02:18:02.896Z,16
2022-09-09T02:19:01.285Z,16
2022-09-09T02:20:02.632Z,16
2022-09-09T02:21:01.757Z,16
2022-09-09T02:22:01.510Z,16
2022-09-09T02:23:01.668Z,16
2022-09-09T02:24:01.602Z,16.1
2022-09-09T02:25:01.649Z,16
2022-09-09T02:26:01.801Z,15.9
2022-09-09T02:27:01.870Z,16
2022-09-09T02:28:01.831Z,15.9
2022-09-09T02:29:02.359Z,16.1
2022-09-09T02:30:02.661Z,16
2022-09-09T02:31:02.061Z,16
2022-09-09T02:32:02.089Z,15.9
2022-09-09T02:33:02.150Z,16
2022-09-09T02:34:02.204Z,15.9
2022-09-09T02:35:03.814Z,15.8
2022-09-09T02:36:04.243Z,15.9
2022-09-09T02:37:03.055Z,15.9
2022-09-09T02:38:02.497Z,15.9
2022-09-09T02:39:02.528Z,15.9
2022-09-09T02:40:02.650Z,16.1
2022-09-09T02:41:04.436Z,16
2022-09-09T02:42:02.776Z,16
2022-09-09T02:43:02.787Z,15.9
2022-09-09T02:44:02.897Z,15.9
2022-09-09T02:45:03.061Z,16
2022-09-09T02:46:03.181Z,16
2022-09-09T02:47:03.156Z,16
2022-09-09T02:48:03.198Z,16
2022-09-09T02:49:03.936Z,16
2022-09-09T02:50:07.263Z,16
2022-09-09T02:51:05.214Z,16
2022-09-09T02:52:03.507Z,16
2022-09-09T02:53:03.856Z,16
2022-09-09T02:54:03.658Z,16.1
2022-09-09T02:55:03.740Z,16.1
2022-09-09T02:56:03.795Z,16.1
2022-09-09T02:57:05.930Z,16.1
2022-09-09T02:58:05.625Z,16
2022-09-09T02:59:04.028Z,16
2022-09-09T03:00:04.120Z,16
2022-09-09T03:01:04.288Z,16.1
2022-09-09T03:02:04.325Z,16.1
2022-09-09T03:03:04.448Z,16.1
2022-09-09T03:04:04.431Z,16.1
2022-09-09T03:05:04.950Z,16
2022-09-09T03:06:05.857Z,16
2022-09-09T03:07:04.692Z,16
2022-09-09T03:08:04.819Z,16
2022-09-09T03:09:04.878Z,16
2022-09-09T03:10:04.973Z,16.1
2022-09-09T03:11:05.512Z,16
2022-09-09T03:12:05.065Z,16
2022-09-09T03:13:06.761Z,16.1
2022-09-09T03:14:05.233Z,16.1
2022-09-09T03:15:05.252Z,16
2022-09-09T03:16:07.033Z,16.1
2022-09-09T03:17:05.403Z,16.2
2022-09-09T03:18:05.492Z,16.2
2022-09-09T03:19:05.795Z,16.1
2022-09-09T03:20:05.603Z,16.1
2022-09-09T03:21:05.967Z,16
2022-09-09T03:22:07.739Z,16.1
2022-09-09T03:23:05.814Z,16.2
2022-09-09T03:24:05.903Z,16.1
2022-09-09T03:25:06.451Z,16.1
2022-09-09T03:26:06.650Z,16.1
2022-09-09T03:27:06.969Z,16
2022-09-09T03:28:06.746Z,16
2022-09-09T03:29:07.723Z,16
2022-09-09T03:30:06.291Z,15.9
2022-09-09T03:31:10.447Z,16
2022-09-09T03:32:06.450Z,16.1
2022-09-09T03:33:16.470Z,16.1
2022-09-09T03:36:01.935Z,16
2022-09-09T03:36:13.771Z,16
2022-09-09T03:37:06.670Z,16
2022-09-09T03:38:06.897Z,16
2022-09-09T03:39:08.455Z,16
2022-09-09T03:40:06.927Z,16
2022-09-09T03:41:08.820Z,15.9
2022-09-09T03:42:07.130Z,15.9
2022-09-09T03:43:08.607Z,15.7
2022-09-09T03:44:21.490Z,15.8
2022-09-09T03:45:36.004Z,15.7
2022-09-09T03:46:51.961Z,15.7
2022-09-09T03:48:06.009Z,15.7
2022-09-09T03:49:20.980Z,15.8
2022-09-09T03:50:36.006Z,15.8
2022-09-09T03:51:52.903Z,15.7
2022-09-09T03:52:54.283Z,15.8
2022-09-09T03:53:55.840Z,15.7
2022-09-09T03:54:54.194Z,15.7
2022-09-09T03:55:56.634Z,15.6
2022-09-09T03:56:56.747Z,15.6
2022-09-09T03:57:55.692Z,15.6
2022-09-09T03:58:56.022Z,15.5
2022-09-09T03:59:55.692Z,15.4
2022-09-09T04:00:54.600Z,15.5
2022-09-09T04:01:54.845Z,15.5
2022-09-09T04:02:54.944Z,15.4
2022-09-09T04:03:55.042Z,15.5
2022-09-09T04:04:54.915Z,15.4
2022-09-09T04:05:54.896Z,15.4
2022-09-09T04:06:54.951Z,15.4
2022-09-09T04:07:55.979Z,15.3
2022-09-09T04:08:55.677Z,15.3
2022-09-09T04:09:55.550Z,15.2
2022-09-09T04:10:55.266Z,15.3
2022-09-09T04:11:55.740Z,15.4
2022-09-09T04:12:57.717Z,15.4
2022-09-09T04:13:55.828Z,15.4
2022-09-09T04:14:55.785Z,15.4
2022-09-09T04:15:55.606Z,15.3
2022-09-09T04:16:56.376Z,15.4
2022-09-09T04:17:55.678Z,15.3
2022-09-09T04:18:55.767Z,15.3
2022-09-09T04:19:55.815Z,15.2
2022-09-09T04:20:55.894Z,15.2
2022-09-09T04:21:56.025Z,15.3
2022-09-09T04:22:56.625Z,15.2
2022-09-09T04:23:56.800Z,15.3
2022-09-09T04:24:58.094Z,15.3
2022-09-09T04:25:57.181Z,15.3
2022-09-09T04:26:58.188Z,15.3
2022-09-09T04:27:56.516Z,15.4
2022-09-09T04:28:56.628Z,15.3
2022-09-09T04:29:56.578Z,15.3
2022-09-09T04:31:26.578Z,15.4
2022-09-09T04:31:57.790Z,15.4
2022-09-09T04:32:56.957Z,15.4
2022-09-09T04:33:57.131Z,15.3
2022-09-09T04:34:58.955Z,15.3
2022-09-09T04:35:56.989Z,15.3
2022-09-09T04:36:58.550Z,15.3
2022-09-09T04:37:57.146Z,15.4
2022-09-09T04:38:57.195Z,15.5
2022-09-09T04:39:58.004Z,15.4
2022-09-09T04:40:58.458Z,15.4
2022-09-09T04:42:02.892Z,15.5
2022-09-09T04:42:57.746Z,15.5
2022-09-09T04:43:57.567Z,15.4
2022-09-09T04:44:57.647Z,15.3
2022-09-09T04:45:57.737Z,15.3
2022-09-09T04:46:57.753Z,15.3
2022-09-09T04:47:58.670Z,15.2
2022-09-09T04:48:59.691Z,15.3
2022-09-09T04:49:57.971Z,15.2
2022-09-09T04:50:59.788Z,15.2
2022-09-09T04:51:58.784Z,15.3
2022-09-09T04:52:59.044Z,15.4
2022-09-09T04:53:58.113Z,15.4
2022-09-09T04:54:58.437Z,15.4
2022-09-09T04:55:58.261Z,15.4
2022-09-09T04:56:58.497Z,15.3
2022-09-09T04:57:58.325Z,15.3
2022-09-09T04:58:58.501Z,15.4
2022-09-09T04:59:58.447Z,15.3
2022-09-09T05:00:58.538Z,15.3
2022-09-09T05:01:58.609Z,15.3
2022-09-09T05:02:58.633Z,15.4
2022-09-09T05:04:00.511Z,15.4
2022-09-09T05:04:58.705Z,15.4
2022-09-09T05:05:58.705Z,15.4
2022-09-09T05:06:59.063Z,15.3
2022-09-09T05:07:58.855Z,15.3
2022-09-09T05:08:58.853Z,15.5
2022-09-09T05:10:00.889Z,15.4
2022-09-09T05:11:00.686Z,15.3
2022-09-09T05:11:59.440Z,15.3
2022-09-09T05:13:00.975Z,15.4
2022-09-09T05:14:00.230Z,15.3
2022-09-09T05:14:59.127Z,15.3
2022-09-09T05:15:59.265Z,15.3
2022-09-09T05:16:59.899Z,15.2
2022-09-09T05:17:59.647Z,15.1
2022-09-09T05:18:59.501Z,15.1
2022-09-09T05:20:00.286Z,15.1
2022-09-09T05:21:00.960Z,15.2
2022-09-09T05:21:59.597Z,15.1
2022-09-09T05:22:59.673Z,15.2
2022-09-09T05:24:01.167Z,15.3
2022-09-09T05:25:01.709Z,15.2
2022-09-09T05:26:03.800Z,15.2
2022-09-09T05:26:59.967Z,15.1
2022-09-09T05:28:00.065Z,15.1
2022-09-09T05:29:00.148Z,15.1
2022-09-09T05:30:01.659Z,15.1
2022-09-09T05:31:00.977Z,15
2022-09-09T05:32:00.390Z,15.1
2022-09-09T05:33:00.611Z,15.1
2022-09-09T05:34:01.044Z,15.1
2022-09-09T05:35:00.776Z,15.2
2022-09-09T05:36:00.663Z,15.1
2022-09-09T05:37:01.092Z,15.2
2022-09-09T05:38:00.774Z,15.1
2022-09-09T05:39:00.818Z,15.1
2022-09-09T05:40:00.903Z,15.2
2022-09-09T05:41:02.129Z,15.3
2022-09-09T05:42:01.926Z,15.3
2022-09-09T05:43:01.094Z,15.4
2022-09-09T05:44:01.153Z,15.4
2022-09-09T05:45:01.845Z,15.3
2022-09-09T05:46:03.166Z,15.4
2022-09-09T05:47:01.416Z,15.3
2022-09-09T05:48:03.040Z,15.3
2022-09-09T05:49:01.556Z,15.3
2022-09-09T05:50:01.619Z,15.3
2022-09-09T05:51:01.837Z,15.2
2022-09-09T05:52:03.100Z,15.2
2022-09-09T05:53:02.504Z,15.2
2022-09-09T05:54:01.833Z,15.2
2022-09-09T05:55:01.910Z,15.1
2022-09-09T05:56:01.978Z,15.1
2022-09-09T05:57:02.518Z,15.1
2022-09-09T05:58:02.374Z,15.2
2022-09-09T05:59:02.399Z,15.1
2022-09-09T06:00:03.808Z,15.1
2022-09-09T06:01:02.307Z,15.2
2022-09-09T06:02:02.472Z,15.3
2022-09-09T06:03:02.600Z,15.3
2022-09-09T06:04:04.065Z,15.3
2022-09-09T06:05:02.733Z,15.3
2022-09-09T06:06:03.009Z,15.3
2022-09-09T06:07:02.655Z,15.3
2022-09-09T06:08:03.260Z,15.2
2022-09-09T06:09:03.314Z,15.3
2022-09-09T06:10:03.040Z,15.3
2022-09-09T06:11:04.109Z,15.3
2022-09-09T06:12:03.065Z,15.4
2022-09-09T06:13:03.896Z,15.5
2022-09-09T06:14:05.061Z,15.5
2022-09-09T06:15:03.121Z,15.4
2022-09-09T06:16:06.045Z,15.4
2022-09-09T06:17:03.340Z,15.4
2022-09-09T06:18:03.362Z,15.4
2022-09-09T06:19:03.446Z,15.4
2022-09-09T06:20:03.546Z,15.4
2022-09-09T06:21:05.164Z,15.5
2022-09-09T06:22:05.003Z,15.3
2022-09-09T06:23:05.363Z,15.4
2022-09-09T06:24:03.840Z,15.3
2022-09-09T06:25:04.330Z,15.5
2022-09-09T06:26:04.695Z,15.5
2022-09-09T06:27:04.067Z,15.5
2022-09-09T06:28:04.145Z,15.4
2022-09-09T06:29:04.204Z,15.4
2022-09-09T06:30:05.420Z,15.4
2022-09-09T06:31:06.266Z,15.4
2022-09-09T06:32:06.078Z,15.4
2022-09-09T06:33:06.625Z,15.4
2022-09-09T06:34:06.156Z,15.4
2022-09-09T06:35:05.803Z,15.5
2022-09-09T06:36:06.253Z,15.5
2022-09-09T06:37:04.837Z,15.5
2022-09-09T06:38:04.961Z,15.4
2022-09-09T06:39:10.955Z,15.4
2022-09-09T06:40:06.510Z,15.4
2022-09-09T06:41:05.126Z,15.4
2022-09-09T06:42:06.578Z,15.4
2022-09-09T06:43:05.276Z,15.4
2022-09-09T06:44:06.916Z,15.6
2022-09-09T06:45:05.453Z,15.8
2022-09-09T06:46:06.979Z,15.9
2022-09-09T06:47:06.816Z,16
2022-09-09T06:48:07.128Z,16.2
2022-09-09T06:49:07.610Z,16.3
2022-09-09T06:50:05.852Z,16.5
2022-09-09T06:51:07.459Z,16.4
2022-09-09T06:52:10.360Z,16.4
2022-09-09T06:53:07.726Z,16.5
2022-09-09T06:54:07.142Z,16.4
2022-09-09T06:55:06.233Z,16.5
2022-09-09T06:56:06.281Z,16.5
2022-09-09T06:57:15.599Z,16.7
2022-09-09T06:58:06.499Z,16.7
2022-09-09T06:59:06.575Z,16.8
2022-09-09T07:00:08.157Z,16.8
2022-09-09T07:01:07.053Z,16.8
2022-09-09T07:02:06.827Z,16.6
2022-09-09T07:03:06.894Z,16.7
2022-09-09T07:04:09.145Z,16.8
2022-09-09T07:05:08.494Z,16.9
2022-09-09T07:06:07.084Z,17
2022-09-09T07:07:07.150Z,17.1
2022-09-09T07:08:08.181Z,17.2
2022-09-09T07:09:07.320Z,17.1
2022-09-09T07:10:09.123Z,17.1
2022-09-09T07:11:12.199Z,17.1
2022-09-09T07:12:07.629Z,17.2
2022-09-09T07:13:07.492Z,17.2
2022-09-09T07:14:07.783Z,17.3
2022-09-09T07:15:08.320Z,17.4
2022-09-09T07:16:07.741Z,17.3
2022-09-09T07:17:08.910Z,17.2
2022-09-09T07:18:07.800Z,17.3
2022-09-09T07:19:07.873Z,17.4
2022-09-09T07:20:08.881Z,17.3
2022-09-09T07:21:08.002Z,17.2
2022-09-09T07:22:15.141Z,17.2
2022-09-09T07:23:34.318Z,17.3
2022-09-09T07:24:47.506Z,17.5
2022-09-09T07:25:48.540Z,17.4
2022-09-09T07:26:48.636Z,17.3
2022-09-09T07:27:48.394Z,17.2
2022-09-09T07:28:50.370Z,17.4
2022-09-09T07:29:48.564Z,17.5
2022-09-09T07:30:48.738Z,17.7
2022-09-09T07:31:48.796Z,17.7
2022-09-09T07:32:49.984Z,17.8
2022-09-09T07:33:48.842Z,17.8
2022-09-09T07:34:48.936Z,17.9
2022-09-09T07:35:49.040Z,18
2022-09-09T07:36:49.125Z,18.1
2022-09-09T07:37:51.684Z,17.9
2022-09-09T07:38:49.276Z,17.9
2022-09-09T07:39:49.399Z,18.1
2022-09-09T07:40:49.471Z,18.1
2022-09-09T07:41:52.245Z,18.1
2022-09-09T07:42:49.597Z,18.1
2022-09-09T07:43:49.696Z,18.2
2022-09-09T07:44:49.751Z,18.3
2022-09-09T07:45:51.672Z,18.2
2022-09-09T07:46:50.077Z,18.3
2022-09-09T07:47:50.258Z,18.5
2022-09-09T07:48:50.124Z,18.5
2022-09-09T07:49:50.196Z,18.6
2022-09-09T07:50:52.168Z,18.5
2022-09-09T07:51:50.639Z,18.3
2022-09-09T07:52:50.717Z,18
2022-09-09T07:53:50.930Z,17.9
2022-09-09T07:54:50.578Z,18
2022-09-09T07:55:50.714Z,18
2022-09-09T07:56:50.831Z,18
2022-09-09T07:57:52.073Z,17.7
2022-09-09T07:58:52.929Z,17.6
2022-09-09T07:59:51.026Z,17.5
2022-09-09T08:00:55.723Z,17.5
2022-09-09T08:01:53.746Z,17.6
2022-09-09T08:02:51.590Z,17.6
2022-09-09T08:03:56.614Z,17.6
2022-09-09T08:04:51.861Z,17.6
2022-09-09T08:05:51.509Z,17.7
2022-09-09T08:06:51.631Z,17.6
2022-09-09T08:07:52.274Z,17.6
2022-09-09T08:08:51.762Z,17.5
2022-09-09T08:09:51.838Z,17.4
2022-09-09T08:10:51.952Z,17.4
2022-09-09T08:11:54.193Z,17.5
2022-09-09T08:13:08.145Z,17.5
2022-09-09T08:13:54.382Z,17.5
2022-09-09T08:14:52.256Z,17.4
2022-09-09T08:15:53.552Z,17.3
2022-09-09T08:16:54.878Z,17.3
2022-09-09T08:17:54.084Z,17.3
2022-09-09T08:18:52.635Z,17.3
2022-09-09T08:19:53.164Z,17.4
2022-09-09T08:20:52.940Z,17.5
2022-09-09T08:21:55.005Z,17.4
2022-09-09T08:22:52.825Z,17.3
2022-09-09T08:23:57.211Z,17.3
2022-09-09T08:24:54.954Z,17.5
2022-09-09T08:25:53.508Z,17.4
2022-09-09T08:26:54.539Z,17.5
2022-09-09T08:27:53.130Z,17.5
2022-09-09T08:28:53.179Z,17.7
2022-09-09T08:29:53.219Z,17.7
2022-09-09T08:30:56.015Z,17.7
2022-09-09T08:31:53.365Z,17.6
2022-09-09T08:32:53.893Z,17.5
2022-09-09T08:33:53.568Z,17.5
2022-09-09T08:34:54.912Z,17.6
2022-09-09T08:35:55.253Z,17.6
2022-09-09T08:36:53.620Z,17.6
2022-09-09T08:37:53.723Z,17.6
2022-09-09T08:38:56.147Z,17.6
2022-09-09T08:39:54.824Z,17.6
2022-09-09T08:40:54.302Z,17.7
2022-09-09T08:41:53.788Z,17.7
2022-09-09T08:42:54.113Z,17.7
2022-09-09T08:44:03.422Z,17.5
2022-09-09T08:44:54.158Z,17.6
2022-09-09T08:45:54.265Z,17.6
2022-09-09T08:48:32.754Z,17.6
2022-09-09T08:48:54.335Z,17.6
2022-09-09T08:49:54.448Z,17.6
2022-09-09T08:50:59.357Z,17.6
2022-09-09T08:51:54.513Z,17.5
2022-09-09T08:52:56.871Z,17.5
2022-09-09T08:53:59.139Z,17.5
2022-09-09T08:54:56.010Z,17.5
2022-09-09T08:57:03.498Z,17.5
2022-09-09T08:59:34.761Z,17.5
2022-09-09T09:02:05.641Z,17.6
2022-09-09T09:04:08.228Z,17.9
2022-09-09T09:05:06.964Z,18.4
2022-09-09T09:06:06.421Z,18.5
2022-09-09T09:07:07.056Z,18.4
2022-09-09T09:08:06.698Z,18.2
2022-09-09T09:09:06.649Z,18.2
2022-09-09T09:10:19.148Z,18.2
2022-09-09T09:11:06.838Z,18.3
2022-09-09T09:12:07.297Z,18.4
2022-09-09T09:13:07.222Z,18.3
2022-09-09T09:14:06.975Z,18.3
2022-09-09T09:15:07.062Z,18.2
2022-09-09T09:16:07.109Z,18.1
2022-09-09T09:17:07.164Z,18.1
2022-09-09T09:18:07.475Z,18.2
2022-09-09T09:19:07.343Z,18.2
2022-09-09T09:20:08.678Z,18.2
2022-09-09T09:21:07.417Z,18.1
2022-09-09T09:22:08.830Z,18.1
2022-09-09T09:23:09.332Z,18.1
2022-09-09T09:24:07.531Z,18.2
2022-09-09T09:25:12.605Z,18.2
2022-09-09T09:26:07.686Z,18.3
2022-09-09T09:27:07.772Z,18.3
2022-09-09T09:28:07.849Z,18.3
2022-09-09T09:29:12.350Z,18.3
2022-09-09T09:30:24.164Z,18.4
2022-09-09T09:31:08.125Z,18.4
2022-09-09T09:32:09.810Z,18.4
2022-09-09T09:33:08.117Z,18.5
2022-09-09T09:34:10.823Z,18.6
2022-09-09T09:35:08.224Z,18.5
2022-09-09T09:36:08.628Z,18.4
2022-09-09T09:37:08.400Z,18.4
2022-09-09T09:40:10.102Z,18.3
2022-09-09T09:41:10.246Z,18.3
2022-09-09T09:42:10.955Z,18.4
2022-09-09T09:43:08.925Z,18.4
2022-09-09T09:44:10.186Z,18.3
2022-09-09T09:45:08.905Z,18.2
2022-09-09T09:46:18.417Z,18.3
2022-09-09T09:47:09.039Z,18.3
2022-09-09T09:48:13.764Z,18.2
2022-09-09T09:49:09.391Z,18.1
2022-09-09T09:50:11.898Z,18.1
2022-09-09T09:51:09.265Z,18.1
2022-09-09T09:52:10.579Z,18.1
2022-09-09T09:53:10.068Z,18.2
2022-09-09T09:54:10.896Z,18.2
2022-09-09T09:55:12.107Z,18.2
2022-09-09T09:56:09.966Z,18.2
2022-09-09T09:57:11.377Z,18.2
2022-09-09T09:58:09.773Z,18.2
2022-09-09T09:59:13.334Z,18.2
2022-09-09T10:00:11.002Z,18.3
2022-09-09T10:01:11.643Z,18.3
2022-09-09T10:02:10.663Z,18.3
2022-09-09T10:03:10.147Z,18.3
2022-09-09T10:04:12.180Z,18.3
2022-09-09T10:05:11.654Z,18.2
2022-09-09T10:06:15.070Z,18.2
2022-09-09T10:07:11.291Z,18.2
2022-09-09T10:08:12.109Z,18.1
2022-09-09T10:09:13.597Z,18.2
2022-09-09T10:10:10.666Z,18.1
2022-09-09T10:11:10.862Z,18.2
2022-09-09T10:12:13.080Z,18.3
2022-09-09T10:13:10.931Z,18.4
2022-09-09T10:14:11.276Z,18.4
2022-09-09T10:15:11.057Z,18.5
2022-09-09T10:16:12.052Z,18.5
2022-09-09T10:17:13.189Z,18.7
2022-09-09T10:18:13.892Z,18.9
2022-09-09T10:19:11.340Z,19.1
2022-09-09T10:20:11.483Z,19.1
2022-09-09T10:21:11.491Z,19.1
2022-09-09T10:22:12.140Z,19.1
2022-09-09T10:23:11.633Z,19
2022-09-09T10:24:11.794Z,18.8
2022-09-09T10:25:11.794Z,18.8
2022-09-09T10:26:12.033Z,18.8
2022-09-09T10:27:12.017Z,18.8
2022-09-09T10:28:13.104Z,19
2022-09-09T10:29:12.072Z,19.1
2022-09-09T10:30:12.137Z,19.2
2022-09-09T10:31:12.292Z,19.6
2022-09-09T10:32:13.556Z,19.8
2022-09-09T10:33:13.178Z,19.6
2022-09-09T10:34:12.452Z,19.6
2022-09-09T10:35:14.172Z,19.6
2022-09-09T10:36:14.333Z,19.5
2022-09-09T10:37:12.711Z,19.4
2022-09-09T10:38:12.878Z,19.2
2022-09-09T10:39:13.077Z,19.2
2022-09-09T10:40:13.268Z,19.1
2022-09-09T10:41:13.106Z,19
2022-09-09T10:42:13.052Z,19
2022-09-09T10:43:15.930Z,18.9
2022-09-09T10:44:13.220Z,18.8
2022-09-09T10:45:13.810Z,18.8
2022-09-09T10:46:14.740Z,18.8
2022-09-09T10:47:13.336Z,18.7
2022-09-09T10:48:15.331Z,18.8
2022-09-09T10:49:17.424Z,18.7
2022-09-09T10:50:15.021Z,18.7
2022-09-09T10:51:15.522Z,18.7
2022-09-09T10:52:13.660Z,18.8
2022-09-09T10:53:14.917Z,18.9
2022-09-09T10:54:13.745Z,18.8
2022-09-09T10:55:14.135Z,18.8
2022-09-09T10:56:13.888Z,18.8
2022-09-09T10:57:13.953Z,18.8
2022-09-09T10:58:14.031Z,18.7
2022-09-09T10:59:18.398Z,18.7
2022-09-09T11:00:14.549Z,18.7
2022-09-09T11:01:15.638Z,18.8
2022-09-09T11:02:15.143Z,18.9
2022-09-09T11:03:14.359Z,18.9
2022-09-09T11:04:14.491Z,18.8
2022-09-09T11:05:16.654Z,18.8
2022-09-09T11:06:16.788Z,18.9
2022-09-09T11:07:16.517Z,18.9
2022-09-09T11:08:15.753Z,19
2022-09-09T11:09:17.560Z,19
2022-09-09T11:10:16.646Z,19.3
2022-09-09T11:11:15.386Z,19.5
2022-09-09T11:12:15.069Z,19.6
2022-09-09T11:13:15.173Z,19.8
2022-09-09T11:14:15.253Z,20.3
2022-09-09T11:15:16.187Z,20.6
2022-09-09T11:16:17.982Z,20.5
2022-09-09T11:17:15.522Z,20.3
2022-09-09T11:18:16.819Z,19.9
2022-09-09T11:19:16.410Z,20
2022-09-09T11:20:16.804Z,20
2022-09-09T11:21:15.869Z,19.8
2022-09-09T11:22:16.644Z,19.7
2022-09-09T11:23:16.436Z,19.8
2022-09-09T11:24:16.363Z,19.9
2022-09-09T11:25:16.050Z,20
2022-09-09T11:26:16.122Z,20.5
2022-09-09T11:27:17.037Z,20.6
2022-09-09T11:28:17.821Z,20.6
2022-09-09T11:29:16.843Z,20.4
2022-09-09T11:30:27.421Z,20.5
2022-09-09T11:31:18.677Z,20.2
2022-09-09T11:32:16.680Z,20
2022-09-09T11:33:17.032Z,20
2022-09-09T11:34:17.895Z,20
2022-09-09T11:35:21.979Z,20
2022-09-09T11:36:18.123Z,20
2022-09-09T11:37:17.031Z,19.9
2022-09-09T11:38:17.075Z,19.8
2022-09-09T11:39:18.683Z,19.8
2022-09-09T11:40:17.250Z,19.7
2022-09-09T11:41:20.835Z,19.8
2022-09-09T11:42:19.365Z,19.9
2022-09-09T11:43:17.475Z,19.9
2022-09-09T11:44:17.513Z,19.8
2022-09-09T11:45:17.625Z,20.4
2022-09-09T11:46:19.226Z,21
2022-09-09T11:47:17.758Z,21.4
2022-09-09T11:48:18.947Z,21.6
2022-09-09T11:49:17.919Z,21.8
2022-09-09T11:50:21.840Z,22.3
2022-09-09T11:51:18.081Z,21.7
2022-09-09T11:52:18.131Z,21.3
2022-09-09T11:53:20.170Z,21.2
2022-09-09T11:54:18.277Z,21.1
2022-09-09T11:55:18.488Z,21
2022-09-09T11:56:18.588Z,20.8
2022-09-09T11:57:20.186Z,20.4
2022-09-09T11:58:20.290Z,20.3
2022-09-09T11:59:18.582Z,20.2
2022-09-09T12:00:20.710Z,20.2
2022-09-09T12:01:19.219Z,20.4
2022-09-09T12:02:18.794Z,20.8
2022-09-09T12:03:18.788Z,21.1
2022-09-09T12:05:06.666Z,21.1
2022-09-09T12:07:33.475Z,20.5
2022-09-09T12:10:03.451Z,20.4
2022-09-09T12:12:06.487Z,20.1
2022-09-09T12:13:06.714Z,20.2
2022-09-09T12:14:06.779Z,20.1
2022-09-09T12:15:06.728Z,19.9
2022-09-09T12:16:06.795Z,19.8
2022-09-09T12:17:07.209Z,19.7
2022-09-09T12:18:07.368Z,19.8
2022-09-09T12:19:07.127Z,19.9
2022-09-09T12:20:07.495Z,19.9
2022-09-09T12:21:07.176Z,20
2022-09-09T12:22:08.412Z,19.9
2022-09-09T12:23:07.374Z,19.9
2022-09-09T12:24:07.435Z,19.9
2022-09-09T12:25:08.903Z,20.1
2022-09-09T12:26:08.191Z,20.1
2022-09-09T12:27:11.025Z,20
2022-09-09T12:28:07.861Z,20
2022-09-09T12:29:07.887Z,20.1
2022-09-09T12:30:09.192Z,20.2
2022-09-09T12:31:08.194Z,20.2
2022-09-09T12:32:08.205Z,20.1
2022-09-09T12:33:10.748Z,20
2022-09-09T12:34:08.478Z,20.2
2022-09-09T12:35:09.798Z,20
2022-09-09T12:36:09.120Z,20
2022-09-09T12:37:08.467Z,20
2022-09-09T12:38:08.585Z,20
2022-09-09T12:39:08.703Z,19.9
2022-09-09T12:40:10.571Z,19.9
2022-09-09T12:41:08.800Z,19.8
2022-09-09T12:42:35.941Z,19.9
2022-09-09T12:45:03.682Z,19.8
2022-09-09T12:47:33.648Z,19.8
2022-09-09T12:50:04.658Z,19.6
2022-09-09T12:51:58.041Z,19.6
2022-09-09T12:53:26.423Z,19.7
2022-09-09T12:54:57.950Z,19.7
2022-09-09T12:55:57.889Z,19.6
2022-09-09T12:56:59.939Z,19.6
2022-09-09T12:57:58.111Z,19.6
2022-09-09T12:58:58.088Z,19.6
2022-09-09T12:59:58.142Z,19.6
2022-09-09T13:00:58.266Z,19.6
2022-09-09T13:01:58.422Z,19.7
2022-09-09T13:03:08.915Z,19.8
2022-09-09T13:06:05.645Z,19.9
2022-09-09T13:06:58.645Z,19.9
2022-09-09T13:08:00.318Z,19.8
2022-09-09T13:08:59.109Z,19.8
2022-09-09T13:10:00.158Z,19.8
2022-09-09T13:11:02.757Z,19.7
2022-09-09T13:12:00.088Z,19.7
2022-09-09T13:12:58.972Z,19.6
2022-09-09T13:14:04.988Z,19.5
2022-09-09T13:15:00.704Z,19.5
2022-09-09T13:16:02.988Z,19.5
2022-09-09T13:17:04.106Z,19.5
2022-09-09T13:18:08.573Z,19.4
2022-09-09T13:19:18.967Z,19.4
2022-09-09T13:20:15.861Z,19.4
2022-09-09T13:21:01.596Z,19.4
2022-09-09T13:22:24.960Z,19.4
2022-09-09T13:23:27.163Z,19.3
2022-09-09T13:24:22.370Z,19.3
2022-09-09T13:25:22.301Z,19.2
2022-09-09T13:26:22.441Z,19.2
2022-09-09T13:27:29.971Z,19.3
2022-09-09T13:28:23.746Z,19.3
2022-09-09T13:29:22.617Z,19.3
2022-09-09T13:30:24.480Z,19.4
2022-09-09T13:31:23.389Z,19.5
2022-09-09T13:32:22.861Z,19.6
2022-09-09T13:33:28.152Z,19.6
2022-09-09T13:34:23.038Z,19.6
2022-09-09T13:35:24.633Z,19.5
2022-09-09T13:36:23.168Z,19.5
2022-09-09T13:37:25.843Z,19.5
2022-09-09T13:38:27.430Z,19.4
2022-09-09T13:39:23.399Z,19.4
2022-09-09T13:40:24.274Z,19.4
2022-09-09T13:41:24.891Z,19.4
2022-09-09T13:42:23.661Z,19.4
2022-09-09T13:43:25.167Z,19.5
2022-09-09T13:44:23.792Z,19.5
2022-09-09T13:45:25.926Z,19.5
2022-09-09T13:46:24.575Z,19.5
2022-09-09T13:47:24.028Z,19.4
2022-09-09T13:48:24.125Z,19.3
2022-09-09T13:49:24.180Z,19.1
2022-09-09T13:50:24.265Z,19.1
2022-09-09T13:51:24.468Z,18.9
2022-09-09T13:52:30.665Z,18.7